This is the latest recevied weather packets stored in our database for station/object WC4PEM-12. If no packets are shown the sender has not sent any weather packets the latest 1 day(s).
| Time | Temp. | Humidity | Pressure | Rain* | Wind** | Luminosity | Snow |
|---|---|---|---|---|---|---|---|
| 1778092072 | 33.33° C | 44% | 1016 hPa | 0 mm | - | - | - |
| 1778091772 | 32.78° C | 44% | 1016.1 hPa | 0 mm | - | - | - |
| 1778091472 | 32.78° C | 44% | 1016.2 hPa | 0 mm | - | - | - |
| 1778090937 | 32.22° C | 46% | 1016.4 hPa | 0 mm | - | - | - |
| 1778090905 | 32.22° C | 46% | 1016.4 hPa | 0 mm | - | - | - |
| 1778089972 | 32.22° C | 46% | 1016.3 hPa | 0 mm | - | - | - |
| 1778089919 | 32.22° C | 46% | 1016.7 hPa | 0 mm | - | - | - |
| 1778088913 | 32.22° C | 46% | 1016.7 hPa | 0 mm | - | - | - |
| 1778088172 | 32.22° C | 47% | 1016.8 hPa | 0 mm | - | - | - |
| 1778087870 | 31.67° C | 50% | 1016.5 hPa | 0 mm | - | - | - |
| 1778087272 | 31.67° C | 49% | 1016.7 hPa | 0 mm | - | - | - |
| 1778086825 | 31.67° C | 50% | 1016.9 hPa | 0 mm | - | - | - |
| 1778086511 | 31.67° C | 51% | 1016.8 hPa | 0 mm | - | - | - |
| 1778085902 | 31.11° C | 51% | 1017 hPa | 0 mm | - | - | - |
| 1778083185 | 30.56° C | 55% | 1017 hPa | 0 mm | - | - | - |
| 1778082302 | 30° C | 56% | 1017.1 hPa | 0 mm | - | - | - |
| 1778081082 | 29.44° C | 60% | 1017.2 hPa | 0 mm | - | - | - |
| 1778080617 | 28.89° C | 64% | 1017.2 hPa | 0 mm | - | - | - |
| 1778079578 | 28.89° C | 66% | 1017.4 hPa | 0 mm | - | - | - |
| 1778077741 | 27.78° C | 73% | 1017.4 hPa | 0 mm | - | - | - |
| 1778076922 | 27.78° C | 74% | 1017.4 hPa | 0 mm | - | - | - |
| 1778076457 | 27.22° C | 76% | 1017.3 hPa | 0 mm | - | - | - |
| 1778076358 | 27.22° C | 76% | 1017.3 hPa | 0 mm | - | - | - |
| 1778074673 | 25.56° C | 81% | 1017.3 hPa | 0 mm | - | - | - |
| 1778074373 | 25.56° C | 82% | 1017.3 hPa | 0 mm | - | - | - |
* Rain latest hour (hover to see other rain measurements)
** Current wind speed in m/s (hover to see current wind gust speed)